sensor_id;sensor_type;location;lat;lon;timestamp;pressure;altitude;pressure_sealevel;temperature;humidity
78016;BME280;67223;51.102;5.882;2024-02-14T00:02:08;100912.34;;;8.74;100.00
78016;BME280;67223;51.102;5.882;2024-02-14T00:04:33;100926.50;;;8.74;100.00
78016;BME280;67223;51.102;5.882;2024-02-14T00:06:59;100924.34;;;8.79;100.00
78016;BME280;67223;51.102;5.882;2024-02-14T00:09:25;100915.00;;;8.74;100.00
78016;BME280;67223;51.102;5.882;2024-02-14T00:11:51;100927.44;;;8.73;100.00
78016;BME280;67223;51.102;5.882;2024-02-14T00:14:17;100911.28;;;8.76;100.00
78016;BME280;67223;51.102;5.882;2024-02-14T00:16:44;100913.09;;;8.76;100.00
78016;BME280;67223;51.102;5.882;2024-02-14T00:19:10;100919.97;;;8.78;100.00
78016;BME280;67223;51.102;5.882;2024-02-14T00:21:35;100917.56;;;8.75;100.00
78016;BME280;67223;51.102;5.882;2024-02-14T00:24:01;100902.94;;;8.81;100.00
78016;BME280;67223;51.102;5.882;2024-02-14T00:26:27;100908.47;;;8.78;100.00
78016;BME280;67223;51.102;5.882;2024-02-14T00:28:52;100894.66;;;8.73;100.00
78016;BME280;67223;51.102;5.882;2024-02-14T00:31:18;100892.13;;;8.71;100.00
78016;BME280;67223;51.102;5.882;2024-02-14T00:33:43;100885.72;;;8.74;100.00
78016;BME280;67223;51.102;5.882;2024-02-14T00:36:11;100879.00;;;8.81;100.00
78016;BME280;67223;51.102;5.882;2024-02-14T00:38:37;100886.47;;;8.76;100.00
78016;BME280;67223;51.102;5.882;2024-02-14T00:41:02;100888.13;;;8.77;100.00
78016;BME280;67223;51.102;5.882;2024-02-14T00:43:28;100873.88;;;8.78;100.00
78016;BME280;67223;51.102;5.882;2024-02-14T00:45:54;100876.19;;;8.82;100.00
78016;BME280;67223;51.102;5.882;2024-02-14T00:48:22;100868.09;;;8.84;100.00
78016;BME280;67223;51.102;5.882;2024-02-14T00:50:48;100871.50;;;8.86;100.00
78016;BME280;67223;51.102;5.882;2024-02-14T00:53:13;100866.53;;;8.81;100.00
78016;BME280;67223;51.102;5.882;2024-02-14T00:55:39;100861.06;;;8.83;100.00
78016;BME280;67223;51.102;5.882;2024-02-14T00:58:04;100865.53;;;8.82;100.00
78016;BME280;67223;51.102;5.882;2024-02-14T01:00:30;100863.53;;;8.86;100.00
78016;BME280;67223;51.102;5.882;2024-02-14T01:02:57;100868.34;;;8.81;100.00
78016;BME280;67223;51.102;5.882;2024-02-14T01:05:23;100867.84;;;8.87;100.00
78016;BME280;67223;51.102;5.882;2024-02-14T01:07:48;100862.03;;;8.82;100.00
78016;BME280;67223;51.102;5.882;2024-02-14T01:10:14;100843.78;;;8.88;100.00
78016;BME280;67223;51.102;5.882;2024-02-14T01:12:39;100851.38;;;8.82;100.00
78016;BME280;67223;51.102;5.882;2024-02-14T01:15:06;100854.16;;;8.80;100.00
78016;BME280;67223;51.102;5.882;2024-02-14T01:17:31;100850.22;;;8.86;100.00
78016;BME280;67223;51.102;5.882;2024-02-14T01:19:57;100850.72;;;8.91;100.00
78016;BME280;67223;51.102;5.882;2024-02-14T01:22:23;100849.97;;;8.89;100.00
78016;BME280;67223;51.102;5.882;2024-02-14T01:24:49;100853.81;;;8.85;100.00
78016;BME280;67223;51.102;5.882;2024-02-14T01:27:14;100849.00;;;8.90;100.00
78016;BME280;67223;51.102;5.882;2024-02-14T01:29:41;100844.41;;;8.92;100.00
78016;BME280;67223;51.102;5.882;2024-02-14T01:32:06;100845.72;;;8.86;100.00
78016;BME280;67223;51.102;5.882;2024-02-14T01:34:32;100842.72;;;8.91;100.00
78016;BME280;67223;51.102;5.882;2024-02-14T01:36:57;100840.78;;;8.93;100.00
78016;BME280;67223;51.102;5.882;2024-02-14T01:39:23;100842.59;;;8.92;100.00
78016;BME280;67223;51.102;5.882;2024-02-14T01:41:49;100849.78;;;9.03;100.00
78016;BME280;67223;51.102;5.882;2024-02-14T01:44:15;100850.28;;;9.08;100.00
78016;BME280;67223;51.102;5.882;2024-02-14T01:46:42;100856.47;;;9.08;100.00
78016;BME280;67223;51.102;5.882;2024-02-14T01:49:09;100860.50;;;9.14;100.00
78016;BME280;67223;51.102;5.882;2024-02-14T01:51:35;100861.25;;;9.16;100.00
78016;BME280;67223;51.102;5.882;2024-02-14T01:54:02;100860.03;;;9.20;100.00
78016;BME280;67223;51.102;5.882;2024-02-14T01:56:29;100856.63;;;9.18;100.00
78016;BME280;67223;51.102;5.882;2024-02-14T01:58:56;100858.94;;;9.23;100.00
78016;BME280;67223;51.102;5.882;2024-02-14T02:01:21;100858.09;;;9.22;100.00
78016;BME280;67223;51.102;5.882;2024-02-14T02:03:49;100856.06;;;9.26;100.00
78016;BME280;67223;51.102;5.882;2024-02-14T02:06:15;100856.78;;;9.28;100.00
78016;BME280;67223;51.102;5.882;2024-02-14T02:08:43;100862.13;;;9.28;100.00
78016;BME280;67223;51.102;5.882;2024-02-14T02:11:09;100844.75;;;9.46;100.00
78016;BME280;67223;51.102;5.882;2024-02-14T02:13:34;100862.25;;;9.26;100.00
78016;BME280;67223;51.102;5.882;2024-02-14T02:16:00;100858.59;;;9.27;100.00
78016;BME280;67223;51.102;5.882;2024-02-14T02:18:30;100853.50;;;9.24;100.00
78016;BME280;67223;51.102;5.882;2024-02-14T02:20:55;100860.91;;;9.32;100.00
78016;BME280;67223;51.102;5.882;2024-02-14T02:23:21;100856.78;;;9.28;100.00
78016;BME280;67223;51.102;5.882;2024-02-14T02:25:47;100862.75;;;9.31;100.00
78016;BME280;67223;51.102;5.882;2024-02-14T02:28:13;100855.31;;;9.24;100.00
78016;BME280;67223;51.102;5.882;2024-02-14T02:30:39;100861.97;;;9.18;100.00
78016;BME280;67223;51.102;5.882;2024-02-14T02:33:05;100852.06;;;9.20;100.00
78016;BME280;67223;51.102;5.882;2024-02-14T02:35:32;100854.91;;;9.06;100.00
78016;BME280;67223;51.102;5.882;2024-02-14T02:37:58;100845.09;;;9.06;100.00
78016;BME280;67223;51.102;5.882;2024-02-14T02:40:24;100839.63;;;9.08;100.00
78016;BME280;67223;51.102;5.882;2024-02-14T02:42:51;100838.56;;;9.11;100.00
78016;BME280;67223;51.102;5.882;2024-02-14T02:45:17;100838.22;;;9.15;100.00
78016;BME280;67223;51.102;5.882;2024-02-14T02:47:42;100832.03;;;9.15;100.00
78016;BME280;67223;51.102;5.882;2024-02-14T02:50:08;100832.94;;;9.26;100.00
78016;BME280;67223;51.102;5.882;2024-02-14T02:52:34;100831.00;;;9.28;100.00
78016;BME280;67223;51.102;5.882;2024-02-14T02:54:59;100835.31;;;9.18;100.00
78016;BME280;67223;51.102;5.882;2024-02-14T02:57:30;100820.34;;;9.28;100.00
78016;BME280;67223;51.102;5.882;2024-02-14T02:59:57;100825.50;;;9.19;100.00
78016;BME280;67223;51.102;5.882;2024-02-14T03:04:59;100823.69;;;9.19;100.00
78016;BME280;67223;51.102;5.882;2024-02-14T03:07:25;100812.78;;;9.11;100.00
78016;BME280;67223;51.102;5.882;2024-02-14T03:09:51;100799.38;;;9.24;100.00
78016;BME280;67223;51.102;5.882;2024-02-14T03:12:17;100795.72;;;9.14;100.00
78016;BME280;67223;51.102;5.882;2024-02-14T03:14:44;100791.63;;;9.21;100.00
78016;BME280;67223;51.102;5.882;2024-02-14T03:17:09;100788.66;;;9.13;100.00
78016;BME280;67223;51.102;5.882;2024-02-14T03:19:35;100788.31;;;9.17;100.00
78016;BME280;67223;51.102;5.882;2024-02-14T03:22:04;100792.09;;;9.15;100.00
78016;BME280;67223;51.102;5.882;2024-02-14T03:24:31;100799.22;;;9.14;100.00
78016;BME280;67223;51.102;5.882;2024-02-14T03:26:56;100779.72;;;9.14;100.00
78016;BME280;67223;51.102;5.882;2024-02-14T03:29:22;100786.88;;;9.13;100.00
78016;BME280;67223;51.102;5.882;2024-02-14T03:31:47;100775.50;;;9.22;100.00
78016;BME280;67223;51.102;5.882;2024-02-14T03:34:13;100775.00;;;9.17;100.00
78016;BME280;67223;51.102;5.882;2024-02-14T03:36:38;100773.81;;;9.21;100.00
78016;BME280;67223;51.102;5.882;2024-02-14T03:39:05;100771.38;;;9.18;100.00
78016;BME280;67223;51.102;5.882;2024-02-14T03:41:31;100771.88;;;9.23;100.00
78016;BME280;67223;51.102;5.882;2024-02-14T03:43:57;100786.53;;;9.29;100.00
78016;BME280;67223;51.102;5.882;2024-02-14T03:46:26;100791.88;;;9.29;100.00
78016;BME280;67223;51.102;5.882;2024-02-14T03:48:52;100776.84;;;9.28;100.00
78016;BME280;67223;51.102;5.882;2024-02-14T03:51:18;100776.38;;;9.34;100.00
78016;BME280;67223;51.102;5.882;2024-02-14T03:53:45;100787.41;;;9.29;100.00
78016;BME280;67223;51.102;5.882;2024-02-14T03:56:10;100783.78;;;9.30;100.00
78016;BME280;67223;51.102;5.882;2024-02-14T03:58:36;100776.00;;;9.27;100.00
78016;BME280;67223;51.102;5.882;2024-02-14T04:01:03;100784.88;;;9.39;100.00
78016;BME280;67223;51.102;5.882;2024-02-14T04:03:28;100787.81;;;9.58;100.00
78016;BME280;67223;51.102;5.882;2024-02-14T04:05:54;100793.81;;;9.38;100.00
78016;BME280;67223;51.102;5.882;2024-02-14T04:08:20;100795.63;;;9.37;100.00
78016;BME280;67223;51.102;5.882;2024-02-14T04:10:45;100802.56;;;9.40;100.00
78016;BME280;67223;51.102;5.882;2024-02-14T04:13:11;100797.81;;;9.32;100.00
78016;BME280;67223;51.102;5.882;2024-02-14T04:15:36;100802.63;;;9.27;100.00
78016;BME280;67223;51.102;5.882;2024-02-14T04:18:02;100814.03;;;9.29;100.00
78016;BME280;67223;51.102;5.882;2024-02-14T04:20:29;100807.50;;;9.33;100.00
78016;BME280;67223;51.102;5.882;2024-02-14T04:22:54;100810.78;;;9.26;100.00
78016;BME280;67223;51.102;5.882;2024-02-14T04:25:20;100802.06;;;9.35;100.00
78016;BME280;67223;51.102;5.882;2024-02-14T04:27:46;100806.16;;;9.28;100.00
78016;BME280;67223;51.102;5.882;2024-02-14T04:30:11;100812.09;;;9.20;100.00
78016;BME280;67223;51.102;5.882;2024-02-14T04:32:37;100806.97;;;9.17;100.00
78016;BME280;67223;51.102;5.882;2024-02-14T04:35:02;100799.72;;;9.19;100.00
78016;BME280;67223;51.102;5.882;2024-02-14T04:37:28;100797.41;;;9.15;100.00
78016;BME280;67223;51.102;5.882;2024-02-14T04:39:54;100790.72;;;9.09;100.00
78016;BME280;67223;51.102;5.882;2024-02-14T04:42:20;100796.66;;;9.01;100.00
78016;BME280;67223;51.102;5.882;2024-02-14T04:44:45;100796.66;;;9.01;100.00
78016;BME280;67223;51.102;5.882;2024-02-14T04:47:11;100799.81;;;9.06;100.00
78016;BME280;67223;51.102;5.882;2024-02-14T04:49:36;100785.50;;;9.07;100.00
78016;BME280;67223;51.102;5.882;2024-02-14T04:52:02;100779.81;;;9.01;100.00
78016;BME280;67223;51.102;5.882;2024-02-14T04:54:27;100767.66;;;8.97;100.00
78016;BME280;67223;51.102;5.882;2024-02-14T04:56:53;100780.16;;;8.96;100.00
78016;BME280;67223;51.102;5.882;2024-02-14T04:59:19;100779.47;;;9.05;100.00
78016;BME280;67223;51.102;5.882;2024-02-14T05:01:44;100771.69;;;9.02;100.00
78016;BME280;67223;51.102;5.882;2024-02-14T05:04:11;100774.25;;;9.04;100.00
78016;BME280;67223;51.102;5.882;2024-02-14T05:06:38;100770.03;;;9.01;100.00
78016;BME280;67223;51.102;5.882;2024-02-14T05:09:03;100773.78;;;9.10;100.00
78016;BME280;67223;51.102;5.882;2024-02-14T05:11:29;100767.22;;;9.03;100.00
78016;BME280;67223;51.102;5.882;2024-02-14T05:13:54;100763.94;;;8.99;100.00
78016;BME280;67223;51.102;5.882;2024-02-14T05:16:20;100752.09;;;9.03;100.00
78016;BME280;67223;51.102;5.882;2024-02-14T05:18:45;100751.97;;;9.05;100.00
78016;BME280;67223;51.102;5.882;2024-02-14T05:21:11;100747.63;;;9.04;100.00
78016;BME280;67223;51.102;5.882;2024-02-14T05:23:37;100751.97;;;9.05;100.00
78016;BME280;67223;51.102;5.882;2024-02-14T05:26:03;100748.22;;;9.07;100.00
78016;BME280;67223;51.102;5.882;2024-02-14T05:28:29;100745.19;;;9.12;100.00
78016;BME280;67223;51.102;5.882;2024-02-14T05:30:56;100744.72;;;9.18;100.00
78016;BME280;67223;51.102;5.882;2024-02-14T05:33:21;100741.09;;;9.19;100.00
78016;BME280;67223;51.102;5.882;2024-02-14T05:35:51;100732.03;;;9.33;100.00
78016;BME280;67223;51.102;5.882;2024-02-14T05:38:17;100733.25;;;9.29;100.00
78016;BME280;67223;51.102;5.882;2024-02-14T05:40:48;100738.59;;;9.40;100.00
78016;BME280;67223;51.102;5.882;2024-02-14T05:43:14;100737.72;;;9.28;100.00
78016;BME280;67223;51.102;5.882;2024-02-14T05:45:39;100731.31;;;9.53;100.00
78016;BME280;67223;51.102;5.882;2024-02-14T05:48:05;100745.13;;;9.25;100.00
78016;BME280;67223;51.102;5.882;2024-02-14T05:50:31;100740.16;;;9.20;100.00
78016;BME280;67223;51.102;5.882;2024-02-14T05:52:57;100737.47;;;9.20;100.00
78016;BME280;67223;51.102;5.882;2024-02-14T05:55:23;100713.25;;;10.01;100.00
78016;BME280;67223;51.102;5.882;2024-02-14T05:57:50;100700.50;;;10.16;100.00
78016;BME280;67223;51.102;5.882;2024-02-14T06:00:17;100696.06;;;10.69;100.00
78016;BME280;67223;51.102;5.882;2024-02-14T06:02:44;100684.94;;;10.85;100.00
78016;BME280;67223;51.102;5.882;2024-02-14T06:05:09;100693.84;;;9.99;100.00
78016;BME280;67223;51.102;5.882;2024-02-14T06:07:36;100669.56;;;11.98;100.00
78016;BME280;67223;51.102;5.882;2024-02-14T06:10:02;100683.22;;;11.95;100.00
78016;BME280;67223;51.102;5.882;2024-02-14T06:12:27;100702.50;;;10.66;100.00
78016;BME280;67223;51.102;5.882;2024-02-14T06:14:54;100714.16;;;10.65;100.00
78016;BME280;67223;51.102;5.882;2024-02-14T06:17:20;100726.97;;;10.51;100.00
78016;BME280;67223;51.102;5.882;2024-02-14T06:19:45;100734.16;;;10.71;100.00
78016;BME280;67223;51.102;5.882;2024-02-14T06:22:11;100744.59;;;11.36;100.00
78016;BME280;67223;51.102;5.882;2024-02-14T06:24:36;100747.03;;;11.39;100.00
78016;BME280;67223;51.102;5.882;2024-02-14T06:27:02;100772.94;;;10.86;100.00
78016;BME280;67223;51.102;5.882;2024-02-14T06:29:27;100782.13;;;11.25;100.00
78016;BME280;67223;51.102;5.882;2024-02-14T06:31:53;100784.63;;;11.68;100.00
78016;BME280;67223;51.102;5.882;2024-02-14T06:34:19;100798.47;;;11.32;100.00
78016;BME280;67223;51.102;5.882;2024-02-14T06:36:46;100810.06;;;11.42;100.00
78016;BME280;67223;51.102;5.882;2024-02-14T06:39:11;100817.44;;;12.00;100.00
78016;BME280;67223;51.102;5.882;2024-02-14T06:41:37;100836.44;;;11.26;100.00
78016;BME280;67223;51.102;5.882;2024-02-14T06:44:04;100847.00;;;12.20;100.00
78016;BME280;67223;51.102;5.882;2024-02-14T06:46:29;100845.09;;;12.11;100.00
78016;BME280;67223;51.102;5.882;2024-02-14T06:48:55;100872.84;;;11.79;100.00
78016;BME280;67223;51.102;5.882;2024-02-14T06:51:22;100886.16;;;10.74;100.00
78016;BME280;67223;51.102;5.882;2024-02-14T06:53:48;100879.91;;;10.30;100.00
78016;BME280;67223;51.102;5.882;2024-02-14T06:56:14;100877.47;;;10.27;100.00
78016;BME280;67223;51.102;5.882;2024-02-14T06:58:39;100869.91;;;9.99;100.00
78016;BME280;67223;51.102;5.882;2024-02-14T07:01:04;100845.28;;;10.51;100.00
78016;BME280;67223;51.102;5.882;2024-02-14T07:03:30;100865.03;;;10.71;100.00
78016;BME280;67223;51.102;5.882;2024-02-14T07:05:55;100862.13;;;10.74;100.00
78016;BME280;67223;51.102;5.882;2024-02-14T07:08:20;100860.75;;;11.64;100.00
78016;BME280;67223;51.102;5.882;2024-02-14T07:10:46;100884.47;;;11.37;100.00
78016;BME280;67223;51.102;5.882;2024-02-14T07:13:11;100876.47;;;11.37;100.00
78016;BME280;67223;51.102;5.882;2024-02-14T07:15:37;100889.31;;;11.11;100.00
78016;BME280;67223;51.102;5.882;2024-02-14T07:18:02;100889.31;;;11.43;100.00
78016;BME280;67223;51.102;5.882;2024-02-14T07:20:28;100903.19;;;10.51;100.00
78016;BME280;67223;51.102;5.882;2024-02-14T07:22:55;100892.91;;;11.21;100.00
78016;BME280;67223;51.102;5.882;2024-02-14T07:25:22;100903.53;;;10.68;100.00
78016;BME280;67223;51.102;5.882;2024-02-14T07:27:48;100905.81;;;10.84;100.00
78016;BME280;67223;51.102;5.882;2024-02-14T07:30:15;100901.41;;;10.94;100.00
78016;BME280;67223;51.102;5.882;2024-02-14T07:32:41;100897.50;;;12.03;100.00
78016;BME280;67223;51.102;5.882;2024-02-14T07:35:07;100919.19;;;10.73;100.00
78016;BME280;67223;51.102;5.882;2024-02-14T07:37:33;100899.00;;;11.23;100.00
78016;BME280;67223;51.102;5.882;2024-02-14T07:39:58;100921.97;;;11.26;100.00
78016;BME280;67223;51.102;5.882;2024-02-14T07:42:23;100911.91;;;10.64;100.00
78016;BME280;67223;51.102;5.882;2024-02-14T07:44:49;100921.75;;;10.41;100.00
78016;BME280;67223;51.102;5.882;2024-02-14T07:47:14;100916.06;;;10.34;100.00
78016;BME280;67223;51.102;5.882;2024-02-14T07:49:40;100905.56;;;11.51;100.00
78016;BME280;67223;51.102;5.882;2024-02-14T07:52:06;100908.81;;;11.34;100.00
78016;BME280;67223;51.102;5.882;2024-02-14T07:54:31;100929.50;;;11.52;100.00
78016;BME280;67223;51.102;5.882;2024-02-14T07:56:57;100916.25;;;11.51;100.00
78016;BME280;67223;51.102;5.882;2024-02-14T07:59:22;100931.66;;;10.84;100.00
78016;BME280;67223;51.102;5.882;2024-02-14T08:01:48;100931.28;;;11.31;100.00
78016;BME280;67223;51.102;5.882;2024-02-14T08:04:13;100925.16;;;11.72;100.00
78016;BME280;67223;51.102;5.882;2024-02-14T08:06:39;100943.28;;;11.80;100.00
78016;BME280;67223;51.102;5.882;2024-02-14T08:09:05;100944.94;;;11.81;100.00
78016;BME280;67223;51.102;5.882;2024-02-14T08:11:35;100941.19;;;11.72;100.00
78016;BME280;67223;51.102;5.882;2024-02-14T08:14:01;100941.78;;;11.23;100.00
78016;BME280;67223;51.102;5.882;2024-02-14T08:16:26;100944.63;;;11.10;100.00
78016;BME280;67223;51.102;5.882;2024-02-14T08:18:51;100948.66;;;10.71;100.00
78016;BME280;67223;51.102;5.882;2024-02-14T08:21:24;100941.50;;;10.72;100.00
78016;BME280;67223;51.102;5.882;2024-02-14T08:23:49;100933.66;;;10.70;100.00
78016;BME280;67223;51.102;5.882;2024-02-14T08:26:16;100936.28;;;10.82;100.00
78016;BME280;67223;51.102;5.882;2024-02-14T08:28:41;100940.25;;;10.98;100.00
78016;BME280;67223;51.102;5.882;2024-02-14T08:31:13;100927.19;;;10.73;100.00
78016;BME280;67223;51.102;5.882;2024-02-14T08:33:38;100931.69;;;10.72;100.00
78016;BME280;67223;51.102;5.882;2024-02-14T08:36:05;100924.25;;;10.87;100.00
78016;BME280;67223;51.102;5.882;2024-02-14T08:38:32;100933.31;;;11.07;100.00
78016;BME280;67223;51.102;5.882;2024-02-14T08:40:57;100916.50;;;11.16;100.00
78016;BME280;67223;51.102;5.882;2024-02-14T08:43:23;100909.47;;;11.79;100.00
78016;BME280;67223;51.102;5.882;2024-02-14T08:45:51;100938.38;;;11.21;100.00
78016;BME280;67223;51.102;5.882;2024-02-14T08:48:17;100942.41;;;11.15;100.00
78016;BME280;67223;51.102;5.882;2024-02-14T08:50:42;100928.34;;;11.66;100.00
78016;BME280;67223;51.102;5.882;2024-02-14T08:53:07;100943.09;;;11.60;100.00
78016;BME280;67223;51.102;5.882;2024-02-14T08:55:33;100941.47;;;11.69;100.00
78016;BME280;67223;51.102;5.882;2024-02-14T08:58:00;100955.63;;;12.43;100.00
78016;BME280;67223;51.102;5.882;2024-02-14T09:00:25;100977.41;;;11.87;100.00
78016;BME280;67223;51.102;5.882;2024-02-14T09:02:52;100977.28;;;12.10;100.00
78016;BME280;67223;51.102;5.882;2024-02-14T09:05:18;100970.16;;;12.80;100.00
78016;BME280;67223;51.102;5.882;2024-02-14T09:07:44;100982.53;;;12.41;100.00
78016;BME280;67223;51.102;5.882;2024-02-14T09:10:09;100995.72;;;12.54;100.00
78016;BME280;67223;51.102;5.882;2024-02-14T09:12:38;101008.69;;;12.07;100.00
78016;BME280;67223;51.102;5.882;2024-02-14T09:15:04;101009.66;;;12.06;100.00
78016;BME280;67223;51.102;5.882;2024-02-14T09:17:30;101019.63;;;13.07;100.00
78016;BME280;67223;51.102;5.882;2024-02-14T09:19:55;101028.28;;;12.29;100.00
78016;BME280;67223;51.102;5.882;2024-02-14T09:22:21;101036.22;;;13.21;100.00
78016;BME280;67223;51.102;5.882;2024-02-14T09:24:50;101057.72;;;12.29;100.00
78016;BME280;67223;51.102;5.882;2024-02-14T09:27:15;101041.06;;;12.76;100.00
78016;BME280;67223;51.102;5.882;2024-02-14T09:29:41;101042.00;;;12.66;100.00
78016;BME280;67223;51.102;5.882;2024-02-14T09:32:06;101071.28;;;13.09;100.00
78016;BME280;67223;51.102;5.882;2024-02-14T09:34:32;101081.97;;;13.20;100.00
78016;BME280;67223;51.102;5.882;2024-02-14T09:36:57;101086.28;;;12.90;100.00
78016;BME280;67223;51.102;5.882;2024-02-14T09:39:24;101081.03;;;13.10;100.00
78016;BME280;67223;51.102;5.882;2024-02-14T09:41:54;101075.41;;;12.62;100.00
78016;BME280;67223;51.102;5.882;2024-02-14T09:44:27;101067.44;;;12.50;100.00
78016;BME280;67223;51.102;5.882;2024-02-14T09:46:53;101066.53;;;12.61;100.00
78016;BME280;67223;51.102;5.882;2024-02-14T09:49:21;101078.16;;;13.02;100.00
78016;BME280;67223;51.102;5.882;2024-02-14T09:51:48;101075.00;;;12.66;100.00
78016;BME280;67223;51.102;5.882;2024-02-14T09:54:15;101066.19;;;12.75;100.00
78016;BME280;67223;51.102;5.882;2024-02-14T09:56:41;101064.75;;;12.71;100.00
78016;BME280;67223;51.102;5.882;2024-02-14T09:59:08;101070.63;;;13.16;100.00
78016;BME280;67223;51.102;5.882;2024-02-14T10:01:35;101060.28;;;12.81;100.00
78016;BME280;67223;51.102;5.882;2024-02-14T10:04:00;101060.47;;;12.59;100.00
78016;BME280;67223;51.102;5.882;2024-02-14T10:06:25;101048.41;;;11.91;100.00
78016;BME280;67223;51.102;5.882;2024-02-14T10:08:51;101043.16;;;12.42;100.00
78016;BME280;67223;51.102;5.882;2024-02-14T10:11:17;101042.84;;;11.72;100.00
78016;BME280;67223;51.102;5.882;2024-02-14T10:13:46;101041.22;;;12.44;100.00
78016;BME280;67223;51.102;5.882;2024-02-14T10:16:14;101025.97;;;12.03;100.00
78016;BME280;67223;51.102;5.882;2024-02-14T10:18:39;101038.66;;;11.58;100.00
78016;BME280;67223;51.102;5.882;2024-02-14T10:21:05;101029.81;;;11.90;100.00
78016;BME280;67223;51.102;5.882;2024-02-14T10:23:30;101032.16;;;11.72;100.00
78016;BME280;67223;51.102;5.882;2024-02-14T10:25:58;101022.84;;;12.19;100.00
78016;BME280;67223;51.102;5.882;2024-02-14T10:28:23;101032.44;;;12.22;100.00
78016;BME280;67223;51.102;5.882;2024-02-14T10:30:49;101036.66;;;11.83;100.00
78016;BME280;67223;51.102;5.882;2024-02-14T10:33:18;101027.41;;;12.07;100.00
78016;BME280;67223;51.102;5.882;2024-02-14T10:35:44;101034.34;;;12.31;100.00
78016;BME280;67223;51.102;5.882;2024-02-14T10:38:11;101036.47;;;11.75;100.00
78016;BME280;67223;51.102;5.882;2024-02-14T10:40:37;101034.38;;;11.78;100.00
78016;BME280;67223;51.102;5.882;2024-02-14T10:43:08;101022.84;;;12.40;100.00
78016;BME280;67223;51.102;5.882;2024-02-14T10:45:36;101025.47;;;12.10;100.00
78016;BME280;67223;51.102;5.882;2024-02-14T10:48:05;101029.66;;;11.59;100.00
78016;BME280;67223;51.102;5.882;2024-02-14T10:50:34;101017.72;;;11.63;100.00
78016;BME280;67223;51.102;5.882;2024-02-14T10:53:04;101014.09;;;11.96;100.00
78016;BME280;67223;51.102;5.882;2024-02-14T10:55:31;101011.47;;;12.27;100.00
78016;BME280;67223;51.102;5.882;2024-02-14T10:57:58;101009.53;;;12.29;100.00
78016;BME280;67223;51.102;5.882;2024-02-14T11:00:24;101013.88;;;11.88;100.00
78016;BME280;67223;51.102;5.882;2024-02-14T11:02:50;101023.22;;;12.35;100.00
78016;BME280;67223;51.102;5.882;2024-02-14T11:05:19;101029.47;;;11.83;100.00
78016;BME280;67223;51.102;5.882;2024-02-14T11:07:47;101023.34;;;11.92;100.00
78016;BME280;67223;51.102;5.882;2024-02-14T11:10:16;101019.66;;;11.73;100.00
78016;BME280;67223;51.102;5.882;2024-02-14T11:12:41;101006.22;;;12.46;100.00
78016;BME280;67223;51.102;5.882;2024-02-14T11:15:23;101018.94;;;12.44;100.00
78016;BME280;67223;51.102;5.882;2024-02-14T11:17:50;101000.13;;;12.14;100.00
78016;BME280;67223;51.102;5.882;2024-02-14T11:22:56;101006.97;;;12.06;100.00
78016;BME280;67223;51.102;5.882;2024-02-14T11:25:34;101021.13;;;12.90;100.00
78016;BME280;67223;51.102;5.882;2024-02-14T11:28:16;101014.81;;;12.19;100.00
78016;BME280;67223;51.102;5.882;2024-02-14T11:30:43;101011.00;;;12.42;100.00
78016;BME280;67223;51.102;5.882;2024-02-14T11:35:34;100997.31;;;11.62;100.00
78016;BME280;67223;51.102;5.882;2024-02-14T11:37:59;100992.38;;;11.47;100.00
78016;BME280;67223;51.102;5.882;2024-02-14T11:40:25;100970.41;;;11.75;100.00
78016;BME280;67223;51.102;5.882;2024-02-14T11:42:51;100971.19;;;12.07;100.00
78016;BME280;67223;51.102;5.882;2024-02-14T11:45:16;100970.22;;;12.08;100.00
78016;BME280;67223;51.102;5.882;2024-02-14T11:47:41;100965.06;;;11.96;100.00
78016;BME280;67223;51.102;5.882;2024-02-14T11:50:07;100974.09;;;12.76;100.00
78016;BME280;67223;51.102;5.882;2024-02-14T11:52:34;100970.28;;;12.39;100.00
78016;BME280;67223;51.102;5.882;2024-02-14T11:55:00;100973.25;;;12.15;100.00
78016;BME280;67223;51.102;5.882;2024-02-14T11:57:26;100976.50;;;11.98;100.00
78016;BME280;67223;51.102;5.882;2024-02-14T11:59:52;100962.19;;;12.08;100.00
78016;BME280;67223;51.102;5.882;2024-02-14T12:02:19;100962.47;;;12.36;100.00
78016;BME280;67223;51.102;5.882;2024-02-14T12:04:45;100952.91;;;12.33;100.00
78016;BME280;67223;51.102;5.882;2024-02-14T12:07:12;100956.72;;;11.89;100.00
78016;BME280;67223;51.102;5.882;2024-02-14T12:09:38;100951.63;;;12.07;100.00
78016;BME280;67223;51.102;5.882;2024-02-14T12:12:04;100951.94;;;12.14;100.00
78016;BME280;67223;51.102;5.882;2024-02-14T12:14:30;100949.44;;;12.01;100.00
78016;BME280;67223;51.102;5.882;2024-02-14T12:17:00;100950.25;;;11.92;100.00
78016;BME280;67223;51.102;5.882;2024-02-14T12:19:28;100933.66;;;11.77;100.00
78016;BME280;67223;51.102;5.882;2024-02-14T12:21:55;100926.22;;;12.01;100.00
78016;BME280;67223;51.102;5.882;2024-02-14T12:24:27;100918.53;;;12.38;100.00
78016;BME280;67223;51.102;5.882;2024-02-14T12:26:54;100929.59;;;12.24;100.00
78016;BME280;67223;51.102;5.882;2024-02-14T12:29:19;100928.81;;;12.13;100.00
78016;BME280;67223;51.102;5.882;2024-02-14T12:31:44;100927.13;;;12.42;100.00
78016;BME280;67223;51.102;5.882;2024-02-14T12:34:10;100934.75;;;12.86;100.00
78016;BME280;67223;51.102;5.882;2024-02-14T12:36:36;100934.34;;;12.91;100.00
78016;BME280;67223;51.102;5.882;2024-02-14T12:39:02;100937.16;;;13.20;100.00
78016;BME280;67223;51.102;5.882;2024-02-14T12:41:30;100944.53;;;12.57;100.00
78016;BME280;67223;51.102;5.882;2024-02-14T12:43:57;100932.16;;;12.35;100.00
78016;BME280;67223;51.102;5.882;2024-02-14T12:46:23;100929.19;;;12.29;100.00
78016;BME280;67223;51.102;5.882;2024-02-14T12:48:49;100939.63;;;12.32;100.00